BAM weather

Battle Mountain Airport
Battle Mountain, Nevada, United States

Public forecast

Using degrees Fahrenheit for public forecast. Weather courtesy of forecast.io.

METAR (pilot weather report)

Closest report is Winnemucca Municipal Airport, 46.0 nm (85.2 km) WNW. Retrieved 2019/07/20 03:56 UTC (38 minutes ago):

KWMC 200356Z AUTO 06004KT 10SM CLR 24/05 A2990 RMK AO2 SLP074 T02390050

TAF (pilot weather forecast)

Forecast is more than 12 hours old.

Retrieved 2019/07/19 00:22 UTC (1 day ago):

TAF KBAM 192320Z 2000/2024 26010G18KT P6SM FEW300 FM200200 VRB05KT P6SM FEW300 FM202000 26009KT P6SM SKC AMD NOT SKED